sensor_id;sensor_type;location;lat;lon;timestamp;P1;durP1;ratioP1;P2;durP2;ratioP2
3267;SDS011;1646;52.450;13.326;2022-10-31T00:01:22;34.23;;;18.07;;
3267;SDS011;1646;52.450;13.326;2022-10-31T00:06:22;26.27;;;17.00;;
3267;SDS011;1646;52.450;13.326;2022-10-31T00:11:20;31.10;;;16.70;;
3267;SDS011;1646;52.450;13.326;2022-10-31T00:16:21;26.03;;;16.10;;
3267;SDS011;1646;52.450;13.326;2022-10-31T00:21:21;28.47;;;16.10;;
3267;SDS011;1646;52.450;13.326;2022-10-31T00:26:20;30.73;;;17.20;;
3267;SDS011;1646;52.450;13.326;2022-10-31T00:31:19;27.70;;;17.63;;
3267;SDS011;1646;52.450;13.326;2022-10-31T00:36:18;27.57;;;18.70;;
3267;SDS011;1646;52.450;13.326;2022-10-31T00:41:20;24.40;;;15.53;;
3267;SDS011;1646;52.450;13.326;2022-10-31T00:46:18;27.93;;;16.30;;
3267;SDS011;1646;52.450;13.326;2022-10-31T00:51:19;27.03;;;17.13;;
3267;SDS011;1646;52.450;13.326;2022-10-31T00:56:17;28.20;;;16.33;;
3267;SDS011;1646;52.450;13.326;2022-10-31T01:01:15;26.70;;;16.57;;
3267;SDS011;1646;52.450;13.326;2022-10-31T01:06:16;30.47;;;16.70;;
3267;SDS011;1646;52.450;13.326;2022-10-31T01:11:15;27.17;;;16.00;;
3267;SDS011;1646;52.450;13.326;2022-10-31T01:16:15;28.50;;;15.50;;
3267;SDS011;1646;52.450;13.326;2022-10-31T01:21:17;24.03;;;15.80;;
3267;SDS011;1646;52.450;13.326;2022-10-31T01:26:19;22.63;;;16.03;;
3267;SDS011;1646;52.450;13.326;2022-10-31T01:31:19;21.00;;;13.67;;
3267;SDS011;1646;52.450;13.326;2022-10-31T01:36:21;20.97;;;14.90;;
3267;SDS011;1646;52.450;13.326;2022-10-31T01:41:20;37.43;;;16.60;;
3267;SDS011;1646;52.450;13.326;2022-10-31T01:46:21;24.10;;;15.30;;
3267;SDS011;1646;52.450;13.326;2022-10-31T01:51:25;20.07;;;15.50;;
3267;SDS011;1646;52.450;13.326;2022-10-31T01:56:26;25.27;;;14.57;;
3267;SDS011;1646;52.450;13.326;2022-10-31T02:01:25;28.60;;;15.90;;
3267;SDS011;1646;52.450;13.326;2022-10-31T02:06:29;25.07;;;15.00;;
3267;SDS011;1646;52.450;13.326;2022-10-31T02:11:33;29.23;;;15.03;;
3267;SDS011;1646;52.450;13.326;2022-10-31T02:16:33;19.33;;;14.33;;
3267;SDS011;1646;52.450;13.326;2022-10-31T02:21:34;21.10;;;12.90;;
3267;SDS011;1646;52.450;13.326;2022-10-31T02:26:49;24.50;;;14.07;;
3267;SDS011;1646;52.450;13.326;2022-10-31T02:32:00;23.07;;;14.30;;
3267;SDS011;1646;52.450;13.326;2022-10-31T02:37:06;20.53;;;14.63;;
3267;SDS011;1646;52.450;13.326;2022-10-31T02:42:13;23.57;;;14.13;;
3267;SDS011;1646;52.450;13.326;2022-10-31T02:47:17;26.90;;;15.80;;
3267;SDS011;1646;52.450;13.326;2022-10-31T02:52:21;20.93;;;12.53;;
3267;SDS011;1646;52.450;13.326;2022-10-31T02:57:22;18.10;;;12.10;;
3267;SDS011;1646;52.450;13.326;2022-10-31T03:02:26;22.83;;;13.73;;
3267;SDS011;1646;52.450;13.326;2022-10-31T03:07:39;20.90;;;13.10;;
3267;SDS011;1646;52.450;13.326;2022-10-31T03:12:46;22.33;;;15.57;;
3267;SDS011;1646;52.450;13.326;2022-10-31T03:17:55;24.80;;;13.93;;
3267;SDS011;1646;52.450;13.326;2022-10-31T03:22:57;25.50;;;13.37;;
3267;SDS011;1646;52.450;13.326;2022-10-31T03:27:56;26.27;;;13.27;;
3267;SDS011;1646;52.450;13.326;2022-10-31T03:32:59;23.27;;;13.70;;
3267;SDS011;1646;52.450;13.326;2022-10-31T03:38:01;21.10;;;14.80;;
3267;SDS011;1646;52.450;13.326;2022-10-31T03:43:04;18.70;;;12.03;;
3267;SDS011;1646;52.450;13.326;2022-10-31T03:48:06;20.60;;;12.97;;
3267;SDS011;1646;52.450;13.326;2022-10-31T03:53:05;22.10;;;13.60;;
3267;SDS011;1646;52.450;13.326;2022-10-31T03:58:08;18.57;;;13.77;;
3267;SDS011;1646;52.450;13.326;2022-10-31T04:03:12;22.97;;;13.63;;
3267;SDS011;1646;52.450;13.326;2022-10-31T04:08:15;20.60;;;13.10;;
3267;SDS011;1646;52.450;13.326;2022-10-31T04:13:19;20.50;;;13.53;;
3267;SDS011;1646;52.450;13.326;2022-10-31T04:18:29;25.03;;;14.33;;
3267;SDS011;1646;52.450;13.326;2022-10-31T04:23:27;19.43;;;13.97;;
3267;SDS011;1646;52.450;13.326;2022-10-31T04:28:28;22.20;;;12.77;;
3267;SDS011;1646;52.450;13.326;2022-10-31T04:33:26;22.30;;;13.73;;
3267;SDS011;1646;52.450;13.326;2022-10-31T04:38:26;28.13;;;13.53;;
3267;SDS011;1646;52.450;13.326;2022-10-31T04:43:24;18.53;;;11.90;;
3267;SDS011;1646;52.450;13.326;2022-10-31T04:48:22;21.37;;;13.00;;
3267;SDS011;1646;52.450;13.326;2022-10-31T04:53:22;18.87;;;12.23;;
3267;SDS011;1646;52.450;13.326;2022-10-31T04:58:48;17.80;;;11.50;;
3267;SDS011;1646;52.450;13.326;2022-10-31T05:03:47;19.47;;;12.70;;
3267;SDS011;1646;52.450;13.326;2022-10-31T05:08:47;23.80;;;14.57;;
3267;SDS011;1646;52.450;13.326;2022-10-31T05:13:45;18.83;;;13.00;;
3267;SDS011;1646;52.450;13.326;2022-10-31T05:18:43;22.90;;;12.67;;
3267;SDS011;1646;52.450;13.326;2022-10-31T05:24:06;20.17;;;12.30;;
3267;SDS011;1646;52.450;13.326;2022-10-31T05:29:13;15.83;;;10.80;;
3267;SDS011;1646;52.450;13.326;2022-10-31T05:34:13;23.33;;;11.73;;
3267;SDS011;1646;52.450;13.326;2022-10-31T05:39:15;22.07;;;12.17;;
3267;SDS011;1646;52.450;13.326;2022-10-31T05:44:18;20.00;;;11.90;;
3267;SDS011;1646;52.450;13.326;2022-10-31T05:49:42;13.37;;;10.20;;
3267;SDS011;1646;52.450;13.326;2022-10-31T05:55:20;20.63;;;13.20;;
3267;SDS011;1646;52.450;13.326;2022-10-31T06:00:36;22.63;;;11.93;;
3267;SDS011;1646;52.450;13.326;2022-10-31T06:05:37;17.90;;;10.37;;
3267;SDS011;1646;52.450;13.326;2022-10-31T06:10:36;18.30;;;10.70;;
3267;SDS011;1646;52.450;13.326;2022-10-31T06:15:35;17.90;;;11.67;;
3267;SDS011;1646;52.450;13.326;2022-10-31T06:20:36;18.03;;;12.77;;
3267;SDS011;1646;52.450;13.326;2022-10-31T06:25:34;15.13;;;11.20;;
3267;SDS011;1646;52.450;13.326;2022-10-31T06:30:34;15.23;;;11.07;;
3267;SDS011;1646;52.450;13.326;2022-10-31T06:35:33;20.17;;;13.27;;
3267;SDS011;1646;52.450;13.326;2022-10-31T06:40:31;23.03;;;13.10;;
3267;SDS011;1646;52.450;13.326;2022-10-31T06:45:46;18.37;;;12.90;;
3267;SDS011;1646;52.450;13.326;2022-10-31T06:50:47;18.60;;;11.03;;
3267;SDS011;1646;52.450;13.326;2022-10-31T06:55:45;16.73;;;11.50;;
3267;SDS011;1646;52.450;13.326;2022-10-31T07:00:44;21.63;;;12.00;;
3267;SDS011;1646;52.450;13.326;2022-10-31T07:05:43;21.30;;;12.17;;
3267;SDS011;1646;52.450;13.326;2022-10-31T07:10:42;17.53;;;12.20;;
3267;SDS011;1646;52.450;13.326;2022-10-31T07:15:48;23.17;;;12.60;;
3267;SDS011;1646;52.450;13.326;2022-10-31T07:20:47;14.10;;;11.30;;
3267;SDS011;1646;52.450;13.326;2022-10-31T07:25:47;16.27;;;11.80;;
3267;SDS011;1646;52.450;13.326;2022-10-31T07:30:50;21.17;;;12.50;;
3267;SDS011;1646;52.450;13.326;2022-10-31T07:35:51;24.47;;;11.87;;
3267;SDS011;1646;52.450;13.326;2022-10-31T07:40:56;18.50;;;11.03;;
3267;SDS011;1646;52.450;13.326;2022-10-31T07:45:59;21.70;;;11.70;;
3267;SDS011;1646;52.450;13.326;2022-10-31T07:51:20;20.77;;;12.27;;
3267;SDS011;1646;52.450;13.326;2022-10-31T07:56:51;25.30;;;11.50;;
3267;SDS011;1646;52.450;13.326;2022-10-31T08:01:48;18.87;;;11.80;;
3267;SDS011;1646;52.450;13.326;2022-10-31T08:07:06;23.33;;;12.50;;
3267;SDS011;1646;52.450;13.326;2022-10-31T08:12:07;24.73;;;12.60;;
3267;SDS011;1646;52.450;13.326;2022-10-31T08:17:06;26.43;;;13.27;;
3267;SDS011;1646;52.450;13.326;2022-10-31T08:22:15;33.47;;;14.73;;
3267;SDS011;1646;52.450;13.326;2022-10-31T08:27:13;26.97;;;14.00;;
3267;SDS011;1646;52.450;13.326;2022-10-31T08:32:12;25.90;;;14.63;;
3267;SDS011;1646;52.450;13.326;2022-10-31T08:37:38;27.20;;;14.70;;
3267;SDS011;1646;52.450;13.326;2022-10-31T08:42:37;31.93;;;15.27;;
3267;SDS011;1646;52.450;13.326;2022-10-31T08:47:35;25.07;;;16.57;;
3267;SDS011;1646;52.450;13.326;2022-10-31T08:52:33;31.00;;;15.70;;
3267;SDS011;1646;52.450;13.326;2022-10-31T08:57:55;31.80;;;15.77;;
3267;SDS011;1646;52.450;13.326;2022-10-31T09:03:03;28.13;;;16.87;;
3267;SDS011;1646;52.450;13.326;2022-10-31T09:08:06;28.53;;;17.97;;
3267;SDS011;1646;52.450;13.326;2022-10-31T09:13:14;34.43;;;18.80;;
3267;SDS011;1646;52.450;13.326;2022-10-31T09:18:34;34.20;;;18.90;;
3267;SDS011;1646;52.450;13.326;2022-10-31T09:23:32;28.90;;;17.90;;
3267;SDS011;1646;52.450;13.326;2022-10-31T09:28:32;29.17;;;17.17;;
3267;SDS011;1646;52.450;13.326;2022-10-31T09:33:35;35.93;;;17.60;;
3267;SDS011;1646;52.450;13.326;2022-10-31T09:38:56;29.43;;;18.07;;
3267;SDS011;1646;52.450;13.326;2022-10-31T09:43:58;31.10;;;17.20;;
3267;SDS011;1646;52.450;13.326;2022-10-31T09:49:17;34.27;;;18.17;;
3267;SDS011;1646;52.450;13.326;2022-10-31T09:54:26;36.63;;;18.93;;
3267;SDS011;1646;52.450;13.326;2022-10-31T09:59:31;31.80;;;16.67;;
3267;SDS011;1646;52.450;13.326;2022-10-31T10:04:34;26.50;;;16.07;;
3267;SDS011;1646;52.450;13.326;2022-10-31T10:09:55;30.30;;;17.77;;
3267;SDS011;1646;52.450;13.326;2022-10-31T10:15:00;39.90;;;17.63;;
3267;SDS011;1646;52.450;13.326;2022-10-31T10:20:18;26.27;;;17.20;;
3267;SDS011;1646;52.450;13.326;2022-10-31T10:25:23;30.63;;;17.70;;
3267;SDS011;1646;52.450;13.326;2022-10-31T10:30:28;34.10;;;18.33;;
3267;SDS011;1646;52.450;13.326;2022-10-31T10:35:32;30.43;;;18.23;;
3267;SDS011;1646;52.450;13.326;2022-10-31T10:40:37;30.87;;;17.57;;
3267;SDS011;1646;52.450;13.326;2022-10-31T10:45:36;34.43;;;18.53;;
3267;SDS011;1646;52.450;13.326;2022-10-31T10:50:56;27.97;;;17.77;;
3267;SDS011;1646;52.450;13.326;2022-10-31T10:55:55;30.47;;;18.10;;
3267;SDS011;1646;52.450;13.326;2022-10-31T11:00:58;36.10;;;18.40;;
3267;SDS011;1646;52.450;13.326;2022-10-31T11:05:59;27.27;;;16.70;;
3267;SDS011;1646;52.450;13.326;2022-10-31T11:10:58;32.70;;;18.50;;
3267;SDS011;1646;52.450;13.326;2022-10-31T11:16:00;23.77;;;16.57;;
3267;SDS011;1646;52.450;13.326;2022-10-31T11:21:02;31.90;;;18.00;;
3267;SDS011;1646;52.450;13.326;2022-10-31T11:26:02;31.27;;;18.93;;
3267;SDS011;1646;52.450;13.326;2022-10-31T11:31:07;26.93;;;18.07;;
3267;SDS011;1646;52.450;13.326;2022-10-31T11:36:13;27.30;;;17.80;;
3267;SDS011;1646;52.450;13.326;2022-10-31T11:41:16;35.73;;;17.10;;
3267;SDS011;1646;52.450;13.326;2022-10-31T11:46:19;34.53;;;16.90;;
3267;SDS011;1646;52.450;13.326;2022-10-31T11:51:20;28.03;;;15.37;;
3267;SDS011;1646;52.450;13.326;2022-10-31T11:56:19;29.63;;;17.63;;
3267;SDS011;1646;52.450;13.326;2022-10-31T12:01:24;35.60;;;16.20;;
3267;SDS011;1646;52.450;13.326;2022-10-31T12:06:26;33.00;;;15.70;;
3267;SDS011;1646;52.450;13.326;2022-10-31T12:11:36;26.90;;;15.53;;
3267;SDS011;1646;52.450;13.326;2022-10-31T12:16:47;26.93;;;15.80;;
3267;SDS011;1646;52.450;13.326;2022-10-31T12:21:59;31.00;;;16.80;;
3267;SDS011;1646;52.450;13.326;2022-10-31T12:27:05;30.70;;;15.23;;
3267;SDS011;1646;52.450;13.326;2022-10-31T12:32:17;30.27;;;17.13;;
3267;SDS011;1646;52.450;13.326;2022-10-31T12:37:30;31.50;;;16.50;;
3267;SDS011;1646;52.450;13.326;2022-10-31T12:42:46;32.13;;;16.33;;
3267;SDS011;1646;52.450;13.326;2022-10-31T12:48:01;27.43;;;15.53;;
3267;SDS011;1646;52.450;13.326;2022-10-31T12:53:13;35.60;;;17.10;;
3267;SDS011;1646;52.450;13.326;2022-10-31T12:58:26;31.10;;;17.53;;
3267;SDS011;1646;52.450;13.326;2022-10-31T13:03:28;29.20;;;15.67;;
3267;SDS011;1646;52.450;13.326;2022-10-31T13:08:33;32.43;;;17.43;;
3267;SDS011;1646;52.450;13.326;2022-10-31T13:13:35;32.30;;;16.33;;
3267;SDS011;1646;52.450;13.326;2022-10-31T13:18:39;31.03;;;17.00;;
3267;SDS011;1646;52.450;13.326;2022-10-31T13:23:43;33.00;;;18.37;;
3267;SDS011;1646;52.450;13.326;2022-10-31T13:28:48;32.00;;;17.27;;
3267;SDS011;1646;52.450;13.326;2022-10-31T13:33:54;30.90;;;17.30;;
3267;SDS011;1646;52.450;13.326;2022-10-31T13:38:56;33.53;;;15.97;;
3267;SDS011;1646;52.450;13.326;2022-10-31T13:44:00;32.00;;;16.43;;
3267;SDS011;1646;52.450;13.326;2022-10-31T13:49:03;35.70;;;17.20;;
3267;SDS011;1646;52.450;13.326;2022-10-31T13:54:06;36.97;;;17.30;;
3267;SDS011;1646;52.450;13.326;2022-10-31T13:59:17;26.23;;;15.97;;
3267;SDS011;1646;52.450;13.326;2022-10-31T14:04:22;30.00;;;17.23;;
3267;SDS011;1646;52.450;13.326;2022-10-31T14:09:29;31.60;;;17.00;;
3267;SDS011;1646;52.450;13.326;2022-10-31T14:14:31;37.27;;;18.47;;
3267;SDS011;1646;52.450;13.326;2022-10-31T14:19:38;33.80;;;19.77;;
3267;SDS011;1646;52.450;13.326;2022-10-31T14:24:36;45.37;;;23.47;;
3267;SDS011;1646;52.450;13.326;2022-10-31T14:29:34;50.33;;;27.03;;
3267;SDS011;1646;52.450;13.326;2022-10-31T14:34:33;52.50;;;26.47;;
3267;SDS011;1646;52.450;13.326;2022-10-31T14:39:35;55.97;;;28.37;;
3267;SDS011;1646;52.450;13.326;2022-10-31T14:44:45;54.53;;;30.17;;
3267;SDS011;1646;52.450;13.326;2022-10-31T14:50:18;52.17;;;27.57;;
3267;SDS011;1646;52.450;13.326;2022-10-31T14:55:21;53.97;;;30.13;;
3267;SDS011;1646;52.450;13.326;2022-10-31T15:00:21;58.30;;;33.07;;
3267;SDS011;1646;52.450;13.326;2022-10-31T15:05:24;58.77;;;31.27;;
3267;SDS011;1646;52.450;13.326;2022-10-31T15:10:26;66.13;;;34.47;;
3267;SDS011;1646;52.450;13.326;2022-10-31T15:15:28;65.23;;;32.97;;
3267;SDS011;1646;52.450;13.326;2022-10-31T15:20:28;66.07;;;35.57;;
3267;SDS011;1646;52.450;13.326;2022-10-31T15:25:30;58.23;;;32.23;;
3267;SDS011;1646;52.450;13.326;2022-10-31T15:30:30;63.77;;;31.70;;
3267;SDS011;1646;52.450;13.326;2022-10-31T15:35:29;67.87;;;35.37;;
3267;SDS011;1646;52.450;13.326;2022-10-31T15:40:29;79.57;;;39.13;;
3267;SDS011;1646;52.450;13.326;2022-10-31T15:50:55;79.70;;;38.97;;
3267;SDS011;1646;52.450;13.326;2022-10-31T15:55:56;81.23;;;41.50;;
3267;SDS011;1646;52.450;13.326;2022-10-31T16:00:56;83.67;;;41.87;;
3267;SDS011;1646;52.450;13.326;2022-10-31T16:05:59;102.27;;;43.97;;
3267;SDS011;1646;52.450;13.326;2022-10-31T16:11:02;98.80;;;44.37;;
3267;SDS011;1646;52.450;13.326;2022-10-31T16:16:15;102.03;;;47.87;;
3267;SDS011;1646;52.450;13.326;2022-10-31T16:21:31;89.33;;;42.20;;
3267;SDS011;1646;52.450;13.326;2022-10-31T16:26:32;95.13;;;45.73;;
3267;SDS011;1646;52.450;13.326;2022-10-31T16:31:35;112.37;;;47.80;;
3267;SDS011;1646;52.450;13.326;2022-10-31T16:36:35;119.00;;;49.97;;
3267;SDS011;1646;52.450;13.326;2022-10-31T16:41:37;108.57;;;47.50;;
3267;SDS011;1646;52.450;13.326;2022-10-31T16:46:37;99.97;;;45.90;;
3267;SDS011;1646;52.450;13.326;2022-10-31T16:51:35;113.10;;;46.73;;
3267;SDS011;1646;52.450;13.326;2022-10-31T16:56:33;108.33;;;46.40;;
3267;SDS011;1646;52.450;13.326;2022-10-31T17:01:38;115.20;;;47.80;;
3267;SDS011;1646;52.450;13.326;2022-10-31T17:06:38;122.67;;;53.70;;
3267;SDS011;1646;52.450;13.326;2022-10-31T17:11:38;134.93;;;51.33;;
3267;SDS011;1646;52.450;13.326;2022-10-31T17:16:45;108.97;;;48.53;;
3267;SDS011;1646;52.450;13.326;2022-10-31T17:21:43;107.50;;;46.13;;
3267;SDS011;1646;52.450;13.326;2022-10-31T17:26:42;114.80;;;47.20;;
3267;SDS011;1646;52.450;13.326;2022-10-31T17:31:41;100.00;;;45.30;;
3267;SDS011;1646;52.450;13.326;2022-10-31T17:36:39;96.40;;;44.33;;
3267;SDS011;1646;52.450;13.326;2022-10-31T17:41:37;99.93;;;42.40;;
3267;SDS011;1646;52.450;13.326;2022-10-31T17:46:36;85.40;;;38.80;;
3267;SDS011;1646;52.450;13.326;2022-10-31T17:51:34;118.53;;;46.40;;
3267;SDS011;1646;52.450;13.326;2022-10-31T17:56:32;119.67;;;48.83;;
3267;SDS011;1646;52.450;13.326;2022-10-31T18:01:30;111.27;;;48.03;;
3267;SDS011;1646;52.450;13.326;2022-10-31T18:06:29;105.40;;;44.07;;
3267;SDS011;1646;52.450;13.326;2022-10-31T18:11:27;104.57;;;44.43;;
3267;SDS011;1646;52.450;13.326;2022-10-31T18:16:25;106.13;;;47.20;;
3267;SDS011;1646;52.450;13.326;2022-10-31T18:21:24;96.10;;;43.80;;
3267;SDS011;1646;52.450;13.326;2022-10-31T18:26:24;97.67;;;42.93;;
3267;SDS011;1646;52.450;13.326;2022-10-31T18:31:23;133.17;;;51.40;;
3267;SDS011;1646;52.450;13.326;2022-10-31T18:36:21;91.27;;;43.50;;
3267;SDS011;1646;52.450;13.326;2022-10-31T18:41:23;141.13;;;50.13;;
3267;SDS011;1646;52.450;13.326;2022-10-31T18:46:21;113.87;;;46.87;;
3267;SDS011;1646;52.450;13.326;2022-10-31T18:51:19;89.20;;;39.93;;
3267;SDS011;1646;52.450;13.326;2022-10-31T18:56:18;97.00;;;43.10;;
3267;SDS011;1646;52.450;13.326;2022-10-31T19:01:18;114.83;;;45.37;;
3267;SDS011;1646;52.450;13.326;2022-10-31T19:06:17;99.37;;;43.63;;
3267;SDS011;1646;52.450;13.326;2022-10-31T19:11:16;98.17;;;43.17;;
3267;SDS011;1646;52.450;13.326;2022-10-31T19:16:15;79.40;;;38.60;;
3267;SDS011;1646;52.450;13.326;2022-10-31T19:21:15;100.50;;;42.67;;
3267;SDS011;1646;52.450;13.326;2022-10-31T19:26:14;81.47;;;39.60;;
3267;SDS011;1646;52.450;13.326;2022-10-31T19:31:12;80.27;;;39.13;;
3267;SDS011;1646;52.450;13.326;2022-10-31T19:36:11;81.10;;;40.97;;
3267;SDS011;1646;52.450;13.326;2022-10-31T19:41:15;97.40;;;44.07;;
3267;SDS011;1646;52.450;13.326;2022-10-31T19:46:15;86.77;;;42.87;;
3267;SDS011;1646;52.450;13.326;2022-10-31T19:51:29;107.40;;;44.37;;
3267;SDS011;1646;52.450;13.326;2022-10-31T19:56:28;74.77;;;38.13;;
3267;SDS011;1646;52.450;13.326;2022-10-31T20:01:26;92.70;;;41.33;;
3267;SDS011;1646;52.450;13.326;2022-10-31T20:06:26;100.40;;;43.70;;
3267;SDS011;1646;52.450;13.326;2022-10-31T20:11:31;93.13;;;42.40;;
3267;SDS011;1646;52.450;13.326;2022-10-31T20:16:29;82.67;;;41.30;;
3267;SDS011;1646;52.450;13.326;2022-10-31T20:21:28;85.20;;;40.73;;
3267;SDS011;1646;52.450;13.326;2022-10-31T20:26:27;83.77;;;38.50;;
3267;SDS011;1646;52.450;13.326;2022-10-31T20:31:29;66.10;;;35.57;;
3267;SDS011;1646;52.450;13.326;2022-10-31T20:36:28;61.73;;;33.70;;
3267;SDS011;1646;52.450;13.326;2022-10-31T20:41:27;73.47;;;39.40;;
3267;SDS011;1646;52.450;13.326;2022-10-31T20:46:25;59.87;;;36.03;;
3267;SDS011;1646;52.450;13.326;2022-10-31T20:51:26;77.43;;;39.03;;
3267;SDS011;1646;52.450;13.326;2022-10-31T20:56:27;75.67;;;39.90;;
3267;SDS011;1646;52.450;13.326;2022-10-31T21:01:25;59.03;;;33.70;;
3267;SDS011;1646;52.450;13.326;2022-10-31T21:06:26;63.73;;;33.77;;
3267;SDS011;1646;52.450;13.326;2022-10-31T21:11:25;68.93;;;37.33;;
3267;SDS011;1646;52.450;13.326;2022-10-31T21:16:30;61.77;;;35.43;;
3267;SDS011;1646;52.450;13.326;2022-10-31T21:21:32;66.00;;;38.27;;
3267;SDS011;1646;52.450;13.326;2022-10-31T21:26:34;75.57;;;39.20;;
3267;SDS011;1646;52.450;13.326;2022-10-31T21:31:34;59.20;;;35.53;;
3267;SDS011;1646;52.450;13.326;2022-10-31T21:36:33;57.40;;;37.07;;
3267;SDS011;1646;52.450;13.326;2022-10-31T21:41:31;65.57;;;37.57;;
3267;SDS011;1646;52.450;13.326;2022-10-31T21:46:30;64.97;;;35.73;;
3267;SDS011;1646;52.450;13.326;2022-10-31T21:51:31;65.20;;;38.03;;
3267;SDS011;1646;52.450;13.326;2022-10-31T21:56:36;60.80;;;37.27;;
3267;SDS011;1646;52.450;13.326;2022-10-31T22:01:34;51.47;;;32.77;;
3267;SDS011;1646;52.450;13.326;2022-10-31T22:06:34;55.37;;;33.13;;
3267;SDS011;1646;52.450;13.326;2022-10-31T22:11:33;59.87;;;35.40;;
3267;SDS011;1646;52.450;13.326;2022-10-31T22:16:33;52.83;;;33.50;;
3267;SDS011;1646;52.450;13.326;2022-10-31T22:21:37;67.10;;;36.33;;
3267;SDS011;1646;52.450;13.326;2022-10-31T22:26:36;56.47;;;33.40;;
3267;SDS011;1646;52.450;13.326;2022-10-31T22:31:36;48.07;;;32.80;;
3267;SDS011;1646;52.450;13.326;2022-10-31T22:36:38;51.73;;;31.40;;
3267;SDS011;1646;52.450;13.326;2022-10-31T22:41:37;76.83;;;40.60;;
3267;SDS011;1646;52.450;13.326;2022-10-31T22:46:35;73.43;;;40.83;;
3267;SDS011;1646;52.450;13.326;2022-10-31T22:51:35;56.27;;;36.70;;
3267;SDS011;1646;52.450;13.326;2022-10-31T22:56:35;61.43;;;37.47;;
3267;SDS011;1646;52.450;13.326;2022-10-31T23:01:34;58.83;;;36.43;;
3267;SDS011;1646;52.450;13.326;2022-10-31T23:06:32;62.17;;;37.80;;
3267;SDS011;1646;52.450;13.326;2022-10-31T23:11:31;56.77;;;36.23;;
3267;SDS011;1646;52.450;13.326;2022-10-31T23:16:31;50.50;;;34.43;;
3267;SDS011;1646;52.450;13.326;2022-10-31T23:21:29;61.63;;;35.70;;
3267;SDS011;1646;52.450;13.326;2022-10-31T23:26:48;55.77;;;36.23;;
3267;SDS011;1646;52.450;13.326;2022-10-31T23:32:03;50.33;;;32.97;;
3267;SDS011;1646;52.450;13.326;2022-10-31T23:37:03;54.90;;;34.03;;
3267;SDS011;1646;52.450;13.326;2022-10-31T23:42:01;47.13;;;31.23;;
3267;SDS011;1646;52.450;13.326;2022-10-31T23:46:59;52.40;;;33.60;;
3267;SDS011;1646;52.450;13.326;2022-10-31T23:51:58;46.23;;;32.60;;
3267;SDS011;1646;52.450;13.326;2022-10-31T23:56:56;50.17;;;33.87;;
